Time;durP1;ratioP1;P1;durP2;ratioP2;P2;SDS_P1;SDS_P2;PMS_P1;PMS_P2;Temp;Humidity;BMP_temperature;BMP_pressure;BME280_temperature;BME280_humidity;BME280_pressure;Samples;Min_cycle;Max_cycle;Signal;HPM_P1;HPM_P2
2022/11/15 00:01:25;;;;;;;356.12;132.81;;;;;;;7.36;94.13;100340.13;2501611;27;20497;-70
2022/11/15 00:01:38;;;;;;;366.87;137.33;;;;;;;7.37;93.97;100338.34;354638;27;896;-70
2022/11/15 00:01:49;;;;;;;366.75;139.90;;;;;;;7.36;94.08;100342.72;351759;28;1314;-71
2022/11/15 00:01:59;;;;;;;368.13;140.87;;;;;;;7.36;94.19;100339.25;350373;28;963;-71
2022/11/15 00:02:10;;;;;;;368.47;142.73;;;;;;;7.37;93.99;100341.81;350383;28;1259;-72
2022/11/15 00:02:20;;;;;;;368.73;138.82;;;;;;;7.37;93.81;100339.22;349056;28;1281;-71
2022/11/15 00:02:30;;;;;;;363.73;134.67;;;;;;;7.36;93.62;100342.72;346306;28;924;-71
2022/11/15 00:02:41;;;;;;;363.23;134.50;;;;;;;7.38;93.65;100338.31;346210;28;943;-71
2022/11/15 00:02:54;;;;;;;362.50;138.47;;;;;;;7.38;93.47;100346.13;346133;28;1399;-71
2022/11/15 00:03:04;;;;;;;365.98;141.35;;;;;;;7.38;93.64;100340.94;347556;28;1964;-71
2022/11/15 00:03:19;;;;;;;364.45;139.18;;;;;;;7.39;94.02;100334.84;348929;28;907;-72
2022/11/15 00:03:29;;;;;;;365.60;139.40;;;;;;;7.40;94.09;100339.16;347492;28;1298;-72
2022/11/15 00:03:39;;;;;;;363.73;138.90;;;;;;;7.39;93.91;100340.03;348902;28;1222;-71
2022/11/15 00:03:53;;;;;;;361.70;137.13;;;;;;;7.39;93.65;100332.22;348874;28;1235;-71
2022/11/15 00:04:04;;;;;;;363.40;138.38;;;;;;;7.39;93.42;100334.84;347794;28;956;-72
2022/11/15 00:04:14;;;;;;;364.45;138.23;;;;;;;7.39;93.87;100332.22;350375;28;970;-71
2022/11/15 00:04:25;;;;;;;363.13;137.07;;;;;;;7.37;93.72;100331.41;349063;28;847;-71
2022/11/15 00:04:35;;;;;;;359.35;137.23;;;;;;;7.40;93.81;100335.69;348993;28;864;-71
2022/11/15 00:04:45;;;;;;;361.83;139.13;;;;;;;7.39;93.52;100332.22;347343;28;1362;-71
2022/11/15 00:04:56;;;;;;;370.27;142.40;;;;;;;7.39;93.42;100342.66;345502;28;4247;-71
2022/11/15 00:05:06;;;;;;;371.95;141.70;;;;;;;7.39;93.81;100336.59;346713;28;4655;-72
2022/11/15 00:05:17;;;;;;;371.50;143.07;;;;;;;7.40;93.57;100335.69;345460;28;2032;-72
2022/11/15 00:05:27;;;;;;;369.17;142.80;;;;;;;7.39;93.47;100334.84;346087;28;2036;-72
2022/11/15 00:05:37;;;;;;;369.40;139.50;;;;;;;7.41;93.86;100338.28;347184;28;3380;-71
2022/11/15 00:05:48;;;;;;;373.77;141.27;;;;;;;7.40;93.53;100333.94;347406;28;1312;-71
2022/11/15 00:06:02;;;;;;;371.60;142.47;;;;;;;7.37;93.63;100339.22;346245;28;1212;-71
2022/11/15 00:06:13;;;;;;;368.77;141.75;;;;;;;7.38;93.95;100338.31;346292;28;882;-71
2022/11/15 00:06:23;;;;;;;363.03;138.63;;;;;;;7.38;93.84;100332.25;347443;28;1636;-71
2022/11/15 00:06:34;;;;;;;365.07;139.00;;;;;;;7.38;93.51;100340.06;348961;28;931;-71
2022/11/15 00:06:44;;;;;;;366.23;139.80;;;;;;;7.36;93.60;100342.72;347817;28;1191;-71
2022/11/15 00:06:54;;;;;;;367.92;142.32;;;;;;;7.36;93.56;100336.66;346996;28;2240;-70
2022/11/15 00:07:05;;;;;;;370.23;145.43;;;;;;;7.37;93.89;100338.34;347071;28;1896;-70
2022/11/15 00:07:15;;;;;;;371.83;147.15;;;;;;;7.37;93.97;100341.81;347598;28;1153;-70
2022/11/15 00:07:26;;;;;;;368.60;143.40;;;;;;;7.38;93.94;100342.66;347115;28;1886;-72
2022/11/15 00:07:36;;;;;;;364.50;142.35;;;;;;;7.38;93.47;100338.31;345031;28;1675;-71
2022/11/15 00:07:46;;;;;;;365.30;141.57;;;;;;;7.36;93.78;100332.31;345094;28;1282;-71
2022/11/15 00:07:57;;;;;;;370.83;146.00;;;;;;;7.36;93.57;100339.25;345037;28;1904;-71
2022/11/15 00:08:08;;;;;;;374.58;145.68;;;;;;;7.34;100.00;100339.28;342439;28;1929;-70
2022/11/15 00:08:18;;;;;;;374.95;144.82;;;;;;;7.33;93.74;100338.44;341284;28;2260;-71
2022/11/15 00:08:32;;;;;;;371.77;140.57;;;;;;;7.33;93.83;100335.81;342176;28;1808;-72
2022/11/15 00:08:43;;;;;;;370.80;141.55;;;;;;;7.32;93.80;100341.06;343415;28;1410;-72
2022/11/15 00:08:53;;;;;;;368.93;141.53;;;;;;;7.32;93.81;100343.66;341113;28;2048;-72
2022/11/15 00:09:03;;;;;;;367.33;142.13;;;;;;;7.31;93.78;100334.13;340211;29;1512;-72
2022/11/15 00:09:14;;;;;;;369.33;144.23;;;;;;;7.32;93.99;100335.84;336913;29;1317;-72
2022/11/15 00:09:24;;;;;;;371.00;143.90;;;;;;;7.31;93.66;100335.00;333722;29;946;-72
2022/11/15 00:09:34;;;;;;;371.45;142.82;;;;;;;7.32;93.75;100346.25;335830;29;1512;-73
2022/11/15 00:09:45;;;;;;;371.73;142.00;;;;;;;7.32;93.80;100339.31;338556;29;2009;-72
2022/11/15 00:09:55;;;;;;;368.60;141.70;;;;;;;7.34;93.91;100341.88;335526;29;1825;-72
2022/11/15 00:10:06;;;;;;;366.17;140.73;;;;;;;7.35;93.69;100341.00;332968;29;1866;-72
2022/11/15 00:10:16;;;;;;;366.45;140.38;;;;;;;7.34;94.15;100339.28;332409;29;1920;-72
2022/11/15 00:10:27;;;;;;;366.43;139.33;;;;;;;7.32;94.01;100330.66;335655;29;1411;-72
2022/11/15 00:10:37;;;;;;;368.15;140.25;;;;;;;7.33;93.96;100338.44;332036;29;968;-73
2022/11/15 00:11:06;;;;;;;366.33;141.07;;;;;;;7.29;93.97;100333.28;332043;29;987;-73
2022/11/15 00:11:16;;;;;;;366.58;136.77;;;;;;;7.29;93.98;100336.75;333064;29;1457;-73
2022/11/15 00:11:26;;;;;;;368.60;138.57;;;;;;;7.29;94.15;100330.69;331922;29;872;-73
2022/11/15 00:11:37;;;;;;;369.17;139.95;;;;;;;7.27;93.95;100341.13;332677;29;3581;-72
2022/11/15 00:11:47;;;;;;;365.43;142.23;;;;;;;7.28;93.97;100340.25;331346;29;1797;-72
2022/11/15 00:11:57;;;;;;;368.90;144.17;;;;;;;7.29;94.08;100341.09;333128;29;1212;-72
2022/11/15 00:12:08;;;;;;;367.77;142.33;;;;;;;7.28;93.97;100336.78;331871;29;2028;-72
2022/11/15 00:12:18;;;;;;;367.53;143.20;;;;;;;7.27;93.97;100337.66;331593;29;2239;-72
2022/11/15 00:12:29;;;;;;;366.85;141.02;;;;;;;7.28;94.23;100334.19;330635;29;1436;-72
2022/11/15 00:12:39;;;;;;;371.00;143.30;;;;;;;7.30;93.92;100337.63;330546;29;1621;-72
2022/11/15 00:12:49;;;;;;;370.90;141.00;;;;;;;7.28;94.38;100336.78;331882;29;925;-72
2022/11/15 00:13:00;;;;;;;367.70;140.40;;;;;;;7.30;93.85;100337.63;332891;29;1080;-72
2022/11/15 00:13:11;;;;;;;365.73;137.05;;;;;;;7.30;93.90;100337.63;331912;29;933;-72
2022/11/15 00:13:21;;;;;;;368.33;137.82;;;;;;;7.33;94.21;100337.56;331368;29;1777;-72
2022/11/15 00:13:32;;;;;;;371.10;140.10;;;;;;;7.33;93.68;100337.56;332645;29;1947;-72
2022/11/15 00:13:42;;;;;;;371.20;141.93;;;;;;;7.33;94.01;100341.03;333153;29;993;-72
2022/11/15 00:13:56;;;;;;;371.17;141.50;;;;;;;7.33;93.71;100335.81;327666;29;2328;-72
2022/11/15 00:14:06;;;;;;;371.27;141.50;;;;;;;7.33;93.65;100337.56;321932;30;3737;-72
2022/11/15 00:14:17;;;;;;;371.80;142.55;;;;;;;7.31;93.63;100336.72;317215;30;3144;-72
2022/11/15 00:14:27;;;;;;;374.80;146.90;;;;;;;7.32;93.98;100336.72;318443;31;2906;-72
2022/11/15 00:14:38;;;;;;;378.83;148.07;;;;;;;7.33;93.83;100335.81;319712;30;2772;-72
2022/11/15 00:14:49;;;;;;;379.23;148.32;;;;;;;7.31;94.12;100332.38;321774;30;3182;-72
2022/11/15 00:14:59;;;;;;;372.87;144.03;;;;;;;7.31;93.71;100340.19;322681;30;1638;-72
2022/11/15 00:15:09;;;;;;;367.17;141.30;;;;;;;7.31;93.84;100334.13;320643;30;828;-72
2022/11/15 00:15:20;;;;;;;367.02;140.75;;;;;;;7.31;93.78;100339.34;318337;30;2176;-72
2022/11/15 00:15:30;;;;;;;370.33;142.80;;;;;;;7.32;93.99;100336.72;315599;31;2514;-72
2022/11/15 00:15:41;;;;;;;370.80;143.10;;;;;;;7.31;93.78;100334.13;312010;31;2085;-72
2022/11/15 00:15:51;;;;;;;372.43;143.37;;;;;;;7.31;93.81;100339.34;308718;31;2936;-72
2022/11/15 00:16:02;;;;;;;370.90;139.43;;;;;;;7.31;94.04;100334.13;309877;31;3537;-72
2022/11/15 00:16:12;;;;;;;372.80;138.73;;;;;;;7.31;93.82;100336.72;310847;31;2257;-72
2022/11/15 00:16:23;;;;;;;370.67;139.35;;;;;;;7.33;94.07;100332.34;309162;31;3487;-72
2022/11/15 00:16:33;;;;;;;370.00;139.35;;;;;;;7.33;94.32;100345.38;310129;31;3878;-72
2022/11/15 00:16:43;;;;;;;371.77;140.47;;;;;;;7.34;93.79;100344.50;309724;31;1957;-72
2022/11/15 00:16:54;;;;;;;372.10;142.93;;;;;;;7.35;93.85;100343.63;311222;31;3448;-72
2022/11/15 00:17:04;;;;;;;371.13;145.55;;;;;;;7.34;93.69;100340.16;311918;31;2007;-72
2022/11/15 00:17:15;;;;;;;370.53;144.00;;;;;;;7.34;94.28;100340.16;316145;31;2207;-72
2022/11/15 00:17:25;;;;;;;371.38;140.88;;;;;;;7.34;94.22;100336.69;314139;31;871;-72
2022/11/15 00:17:35;;;;;;;369.30;137.40;;;;;;;7.34;93.78;100336.69;314486;31;2932;-72
2022/11/15 00:17:49;;;;;;;365.92;137.18;;;;;;;7.34;94.04;100339.28;313202;31;3588;-72
2022/11/15 00:17:59;;;;;;;369.67;140.98;;;;;;;7.34;94.15;100334.09;309771;31;1913;-72
2022/11/15 00:18:13;;;;;;;370.55;142.40;;;;;;;7.36;94.07;100339.25;308485;32;1257;-72
2022/11/15 00:18:23;;;;;;;369.44;142.50;;;;;;;7.38;93.76;100337.47;307593;31;3314;-72
2022/11/15 00:18:34;;;;;;;369.97;142.23;;;;;;;7.37;93.91;100339.22;308444;31;4149;-72
2022/11/15 00:18:44;;;;;;;371.20;143.33;;;;;;;7.36;94.00;100332.31;307129;31;4657;-73
2022/11/15 00:18:55;;;;;;;369.42;140.70;;;;;;;7.36;93.81;100337.53;305348;32;1469;-72
2022/11/15 00:19:05;;;;;;;371.77;141.20;;;;;;;7.38;94.18;100340.94;306458;32;4513;-71
2022/11/15 00:19:16;;;;;;;372.48;142.05;;;;;;;7.37;93.96;100336.59;307346;31;2612;-72
2022/11/15 00:19:26;;;;;;;375.60;143.73;;;;;;;7.36;93.88;100342.72;310857;31;874;-72
2022/11/15 00:19:36;;;;;;;370.13;142.40;;;;;;;7.34;93.91;100334.94;307434;31;3287;-71
2022/11/15 00:19:47;;;;;;;372.63;142.40;;;;;;;7.35;93.74;100338.41;303651;32;4239;-71
2022/11/15 00:19:57;;;;;;;371.15;143.20;;;;;;;7.35;93.72;100338.41;302521;32;2016;-71
2022/11/15 00:20:08;;;;;;;371.37;143.90;;;;;;;7.36;94.07;100341.88;301042;32;5284;-71
2022/11/15 00:20:19;;;;;;;369.55;143.50;;;;;;;7.36;93.99;100337.53;302784;32;5883;-71
2022/11/15 00:20:29;;;;;;;370.42;143.88;;;;;;;7.36;94.05;100342.72;305328;32;1301;-71
2022/11/15 00:20:40;;;;;;;369.57;145.83;;;;;;;7.36;93.96;100342.72;299095;33;1016;-71
2022/11/15 00:20:50;;;;;;;369.80;146.53;;;;;;;7.36;94.12;100340.13;296606;33;5878;-71
2022/11/15 00:21:06;;;;;;;367.30;145.27;;;;;;;7.36;94.34;100342.72;294124;33;6698;-71
2022/11/15 00:21:16;;;;;;;370.42;142.10;;;;;;;7.37;94.45;100338.34;292237;33;6044;-71
2022/11/15 00:21:27;;;;;;;369.83;141.13;;;;;;;7.38;94.28;100342.66;292290;33;1285;-71
2022/11/15 00:21:37;;;;;;;368.13;141.77;;;;;;;7.38;93.94;100334.84;293494;33;3819;-71
2022/11/15 00:21:48;;;;;;;370.48;143.63;;;;;;;7.38;94.17;100342.66;292647;33;5234;-72
2022/11/15 00:21:58;;;;;;;369.53;144.57;;;;;;;7.37;94.25;100341.81;293174;33;848;-72
2022/11/15 00:22:08;;;;;;;370.92;143.13;;;;;;;7.39;94.09;100340.03;292802;33;6501;-72
2022/11/15 00:22:19;;;;;;;367.63;139.90;;;;;;;7.39;94.37;100336.59;292286;33;7219;-73
2022/11/15 00:22:33;;;;;;;369.13;138.55;;;;;;;7.39;94.34;100334.84;292772;33;1585;-73
2022/11/15 00:22:43;;;;;;;366.35;138.82;;;;;;;7.41;94.19;100340.88;292129;33;2566;-72
2022/11/15 00:22:53;;;;;;;367.87;139.60;;;;;;;7.42;94.70;100332.19;291501;33;8244;-72
2022/11/15 00:23:04;;;;;;;366.60;141.20;;;;;;;7.42;94.37;100336.53;292198;33;8851;-72
2022/11/15 00:23:14;;;;;;;370.02;143.00;;;;;;;7.44;94.07;100340.84;289813;33;9179;-72
2022/11/15 00:23:29;;;;;;;369.35;143.45;;;;;;;7.43;94.20;100339.13;287656;34;5094;-72
2022/11/15 00:23:39;;;;;;;368.20;141.93;;;;;;;7.43;94.18;100339.13;291359;33;8125;-72
2022/11/15 00:25:18;;;;;;;356.26;131.02;;;;;;;7.43;94.11;100333.03;2499924;27;20479;-72
2022/11/15 00:25:28;;;;;;;364.90;139.03;;;;;;;7.43;93.85;100339.13;354581;27;965;-72
2022/11/15 00:25:39;;;;;;;369.63;141.13;;;;;;;7.43;94.48;100339.13;353186;28;935;-72
2022/11/15 00:25:56;;;;;;;374.33;143.97;;;;;;;7.42;93.80;100342.59;348184;28;1821;-72
2022/11/15 00:26:06;;;;;;;367.33;142.45;;;;;;;7.42;94.47;100339.13;349025;28;856;-72
2022/11/15 00:26:18;;;;;;;363.03;136.47;;;;;;;7.42;93.90;100347.81;348875;28;1313;-73
2022/11/15 00:26:28;;;;;;;362.02;135.98;;;;;;;7.41;94.31;100335.66;348991;28;1671;-73
2022/11/15 00:26:38;;;;;;;366.75;136.95;;;;;;;7.41;94.30;100338.28;349007;28;939;-73
2022/11/15 00:26:49;;;;;;;370.80;141.50;;;;;;;7.42;94.00;100332.19;348750;28;1463;-72
2022/11/15 00:26:59;;;;;;;373.92;145.20;;;;;;;7.43;93.88;100335.66;349958;28;1237;-72
2022/11/15 00:27:10;;;;;;;371.23;144.67;;;;;;;7.42;94.13;100337.38;348957;28;925;-72
2022/11/15 00:27:20;;;;;;;369.33;143.27;;;;;;;7.42;94.11;100337.38;350216;28;1378;-73
2022/11/15 00:27:30;;;;;;;370.63;138.93;;;;;;;7.42;94.20;100337.38;347587;28;1368;-72
2022/11/15 00:27:42;;;;;;;373.88;139.45;;;;;;;7.42;93.91;100345.19;348923;28;1201;-72
2022/11/15 00:27:55;;;;;;;372.23;138.57;;;;;;;7.42;94.04;100333.94;348038;28;1308;-72
2022/11/15 00:28:06;;;;;;;367.30;140.18;;;;;;;7.43;93.89;100341.72;347483;28;1301;-72
2022/11/15 00:28:16;;;;;;;369.47;141.73;;;;;;;7.43;94.07;100336.50;346259;28;788;-72
2022/11/15 00:28:26;;;;;;;369.15;141.88;;;;;;;7.42;94.11;100340.00;346638;28;2115;-72
2022/11/15 00:28:37;;;;;;;375.37;143.80;;;;;;;7.42;93.99;100340.00;347058;28;1836;-72
2022/11/15 00:28:47;;;;;;;374.03;141.87;;;;;;;7.41;94.34;100335.66;345031;28;941;-72
2022/11/15 00:28:58;;;;;;;370.27;140.05;;;;;;;7.40;94.29;100336.56;347535;28;1355;-72
2022/11/15 00:29:08;;;;;;;365.57;139.73;;;;;;;7.40;93.74;100344.38;347646;28;1088;-73
2022/11/15 00:29:18;;;;;;;364.30;140.95;;;;;;;7.41;94.24;100334.81;348882;28;2008;-72
2022/11/15 00:29:29;;;;;;;366.87;142.67;;;;;;;7.39;94.26;100345.25;350274;28;1251;-72
2022/11/15 00:29:43;;;;;;;366.98;141.35;;;;;;;7.41;94.27;100343.47;349719;28;2092;-72
2022/11/15 00:29:53;;;;;;;369.05;139.65;;;;;;;7.40;94.54;100340.91;348594;28;1009;-72
2022/11/15 00:30:04;;;;;;;371.38;141.98;;;;;;;7.40;94.30;100339.16;343817;28;1522;-72
2022/11/15 00:30:14;;;;;;;370.92;141.27;;;;;;;7.39;94.30;100342.66;342982;28;1697;-73
2022/11/15 00:30:25;;;;;;;369.47;142.37;;;;;;;7.39;94.49;100344.38;342567;28;807;-72
2022/11/15 00:30:35;;;;;;;364.48;141.63;;;;;;;7.37;94.01;100336.59;343751;28;935;-72
2022/11/15 00:30:46;;;;;;;365.47;144.07;;;;;;;7.39;94.07;100345.25;342935;28;1601;-72
2022/11/15 00:31:13;;;;;;;368.50;144.82;;;;;;;7.37;94.24;100336.59;344088;28;856;-72
2022/11/15 00:31:23;;;;;;;366.33;137.68;;;;;;;7.38;94.68;100342.66;340752;29;969;-72
2022/11/15 00:31:34;;;;;;;365.67;139.00;;;;;;;7.39;94.40;100333.97;339579;29;1540;-73
2022/11/15 00:31:44;;;;;;;367.23;140.77;;;;;;;7.39;94.45;100340.03;339973;29;1246;-72
2022/11/15 00:31:54;;;;;;;369.95;139.75;;;;;;;7.40;94.24;100341.75;343396;28;1195;-72
2022/11/15 00:32:05;;;;;;;369.70;140.47;;;;;;;7.39;94.13;100332.22;343646;28;928;-72
2022/11/15 00:32:15;;;;;;;371.23;140.97;;;;;;;7.40;94.49;100333.09;341979;28;979;-72
2022/11/15 00:32:25;;;;;;;368.80;141.50;;;;;;;7.39;94.50;100334.84;342251;28;2211;-72
2022/11/15 00:32:36;;;;;;;369.07;141.30;;;;;;;7.40;94.27;100340.91;338530;28;4340;-72
2022/11/15 00:32:46;;;;;;;366.90;141.40;;;;;;;7.39;94.65;100332.22;342557;28;4669;-72
2022/11/15 00:32:57;;;;;;;372.90;147.33;;;;;;;7.40;94.15;100339.16;340613;28;1282;-73
2022/11/15 00:33:08;;;;;;;371.20;147.02;;;;;;;7.39;94.07;100337.44;336897;29;2541;-72
2022/11/15 00:33:19;;;;;;;368.98;144.13;;;;;;;7.39;94.10;100332.22;336883;29;1134;-72
2022/11/15 00:33:29;;;;;;;364.42;138.07;;;;;;;7.38;94.31;100332.25;339873;28;1456;-71
2022/11/15 00:33:40;;;;;;;366.13;140.73;;;;;;;7.38;94.36;100340.94;340622;28;1106;-71
2022/11/15 00:33:50;;;;;;;367.10;142.68;;;;;;;-144.77;100.00;59014.09;339778;29;1181;-71
2022/11/15 00:34:00;;;;;;;364.40;141.13;;;;;;;-144.77;100.00;59014.09;334400;29;1622;-71
2022/11/15 00:34:11;;;;;;;366.75;139.23;;;;;;;-144.77;100.00;59014.09;331826;29;1569;-71
2022/11/15 00:34:21;;;;;;;367.97;139.90;;;;;;;-144.77;100.00;59014.09;335215;29;1630;-73
2022/11/15 00:34:31;;;;;;;369.17;141.43;;;;;;;-144.77;100.00;59014.09;338183;29;1203;-73
2022/11/15 00:34:42;;;;;;;366.37;140.97;;;;;;;-144.77;100.00;59014.09;336525;29;1957;-72
2022/11/15 00:34:52;;;;;;;364.13;140.40;;;;;;;-144.77;100.00;59014.09;335185;29;2027;-72
2022/11/15 00:35:03;;;;;;;366.90;139.85;;;;;;;-144.77;100.00;59014.09;334537;29;1960;-72
2022/11/15 00:35:13;;;;;;;368.23;139.68;;;;;;;-144.77;94.45;100336.59;328416;29;1411;-72
2022/11/15 00:35:24;;;;;;;367.07;139.27;;;;;;;7.41;94.19;100330.47;327030;29;1777;-72
2022/11/15 00:35:34;;;;;;;367.25;141.45;;;;;;;7.42;94.30;100337.38;329350;30;1301;-72
2022/11/15 00:35:45;;;;;;;369.20;143.17;;;;;;;7.41;94.48;100330.47;332101;29;1801;-72
2022/11/15 00:36:15;;;;;;;370.97;143.83;;;;;;;7.42;94.37;100332.19;328525;30;1698;-72
2022/11/15 00:36:26;;;;;;;376.38;142.18;;;;;;;7.42;94.62;100332.19;328514;29;1481;-72
2022/11/15 00:36:36;;;;;;;371.55;140.05;;;;;;;7.43;94.36;100333.03;328086;30;1571;-72
2022/11/15 00:36:46;;;;;;;372.93;141.97;;;;;;;7.44;94.39;100324.34;330214;29;958;-72
2022/11/15 00:36:57;;;;;;;367.23;141.63;;;;;;;7.43;94.10;100339.13;326827;30;993;-72
2022/11/15 00:37:07;;;;;;;369.20;143.17;;;;;;;7.45;94.37;100331.28;325365;30;1701;-72
2022/11/15 00:37:17;;;;;;;372.23;145.13;;;;;;;7.45;94.42;100332.13;323348;30;861;-72
2022/11/15 00:37:28;;;;;;;376.80;145.13;;;;;;;7.47;93.93;100339.91;326176;30;2097;-72
2022/11/15 00:37:38;;;;;;;373.80;143.37;;;;;;;7.46;94.32;100333.00;327468;29;2165;-72
2022/11/15 00:37:48;;;;;;;368.08;141.35;;;;;;;7.46;94.62;100333.00;324518;30;1212;-72
2022/11/15 00:37:59;;;;;;;365.73;142.67;;;;;;;7.45;94.06;100331.28;320065;30;2111;-72
2022/11/15 00:38:10;;;;;;;368.95;143.50;;;;;;;7.44;94.54;100325.22;319990;30;2122;-72
2022/11/15 00:38:20;;;;;;;367.43;142.37;;;;;;;7.44;94.00;100334.75;324490;30;819;-72
2022/11/15 00:38:32;;;;;;;362.40;139.15;;;;;;;7.43;94.65;100333.91;324193;30;2266;-72
2022/11/15 00:38:42;;;;;;;359.75;136.50;;;;;;;7.44;94.50;100330.41;321175;30;2368;-72
2022/11/15 00:38:53;;;;;;;361.10;134.53;;;;;;;7.44;94.68;100332.16;322557;30;1986;-72
2022/11/15 00:39:05;;;;;;;363.48;133.43;;;;;;;7.42;94.22;100332.19;323314;30;1352;-72
2022/11/15 00:39:15;;;;;;;370.42;139.20;;;;;;;7.43;94.23;100335.66;322243;30;1826;-73
2022/11/15 00:39:26;;;;;;;372.95;142.45;;;;;;;7.43;94.14;100333.03;319170;30;2927;-73
2022/11/15 00:39:36;;;;;;;373.23;142.77;;;;;;;7.42;94.51;100331.31;318553;31;1940;-73
2022/11/15 00:39:47;;;;;;;369.07;140.03;;;;;;;7.43;94.10;100339.13;322276;30;2928;-73
2022/11/15 00:39:57;;;;;;;365.10;140.85;;;;;;;7.43;94.48;100336.50;320611;30;3216;-73
2022/11/15 00:40:08;;;;;;;360.30;138.57;;;;;;;7.44;94.11;100333.03;319944;30;2731;-73
2022/11/15 00:40:18;;;;;;;365.20;141.27;;;;;;;7.42;94.19;100329.56;319769;30;1023;-73
2022/11/15 00:40:29;;;;;;;367.73;140.30;;;;;;;7.42;94.20;100337.38;315368;31;2922;-73
2022/11/15 00:40:39;;;;;;;368.73;142.20;;;;;;;7.41;94.18;100333.06;310782;31;2916;-72
2022/11/15 00:40:50;;;;;;;367.58;142.02;;;;;;;7.41;94.30;100330.47;310143;31;1199;-72
2022/11/15 00:41:00;;;;;;;366.00;142.80;;;;;;;-144.77;100.00;59014.09;314451;31;2166;-72
2022/11/15 00:41:11;;;;;;;367.00;142.27;;;;;;;7.41;94.14;100335.66;313811;31;2113;-72
2022/11/15 00:41:21;;;;;;;367.13;143.97;;;;;;;7.39;93.91;100329.63;313990;31;1195;-72
2022/11/15 00:41:31;;;;;;;366.38;143.05;;;;;;;7.39;94.34;100327.03;309947;31;2799;-72
2022/11/15 00:41:42;;;;;;;367.33;144.03;;;;;;;7.39;94.19;100334.84;307766;31;3846;-72
2022/11/15 00:41:52;;;;;;;368.17;143.82;;;;;;;7.39;94.49;100329.63;305825;31;4943;-72
2022/11/15 00:42:03;;;;;;;370.30;143.20;;;;;;;7.38;93.97;100329.66;307227;32;2196;-72
2022/11/15 00:42:13;;;;;;;375.90;145.75;;;;;;;7.38;94.14;100325.31;307304;31;4555;-72
2022/11/15 00:42:24;;;;;;;373.97;144.53;;;;;;;7.38;94.27;100322.69;308738;31;4425;-72
2022/11/15 00:42:34;;;;;;;368.58;142.98;;;;;;;7.40;94.23;100331.34;310734;31;1361;-72
2022/11/15 00:42:45;;;;;;;361.17;137.77;;;;;;;7.41;94.58;100329.59;306317;32;4210;-72
2022/11/15 00:42:55;;;;;;;361.63;138.00;;;;;;;7.42;94.18;100326.13;303618;32;4405;-72
2022/11/15 00:43:06;;;;;;;360.08;136.18;;;;;;;7.43;94.22;100331.31;304381;32;1083;-72
2022/11/15 00:43:16;;;;;;;360.07;136.57;;;;;;;7.45;94.33;100334.75;306243;32;3146;-72
2022/11/15 00:43:27;;;;;;;358.83;136.50;;;;;;;7.44;94.42;100326.94;306990;31;3787;-72
2022/11/15 00:43:39;;;;;;;366.53;139.17;;;;;;;7.46;94.18;100327.78;303367;32;4352;-72
2022/11/15 00:43:49;;;;;;;367.15;139.70;;;;;;;7.47;94.21;100327.75;302251;32;955;-72
2022/11/15 00:44:00;;;;;;;367.17;141.43;;;;;;;7.44;93.74;100321.75;302472;32;5277;-72
2022/11/15 00:44:10;;;;;;;366.67;139.83;;;;;;;7.46;93.95;100327.78;303468;32;6464;-72
2022/11/15 00:44:21;;;;;;;371.30;141.48;;;;;;;7.45;93.77;100332.13;303877;32;1767;-72
2022/11/15 00:44:31;;;;;;;368.83;139.73;;;;;;;7.45;94.15;100324.31;300711;32;6895;-72
2022/11/15 00:44:41;;;;;;;367.45;139.77;;;;;;;7.45;94.29;100326.94;299643;32;6704;-72
2022/11/15 00:44:52;;;;;;;365.63;137.17;;;;;;;7.45;94.11;100326.06;300259;32;941;-72
2022/11/15 00:45:02;;;;;;;367.17;137.43;;;;;;;7.44;94.48;100325.22;291168;33;1215;-72
2022/11/15 00:45:13;;;;;;;366.80;138.27;;;;;;;7.45;93.87;100321.72;289344;33;6951;-72
2022/11/15 00:45:23;;;;;;;362.90;139.95;;;;;;;7.44;94.18;100325.22;291120;33;4239;-72
2022/11/15 00:45:34;;;;;;;358.50;137.70;;;;;;;7.44;94.13;100320.00;290279;34;921;-72
2022/11/15 00:45:44;;;;;;;361.52;137.38;;;;;;;7.45;93.77;100329.53;285311;34;5396;-72
2022/11/15 00:47:30;;;;;;;366.79;138.75;;;;;;;7.44;94.31;100325.22;2495739;27;20701;-71
2022/11/15 00:47:40;;;;;;;377.53;146.80;;;;;;;7.44;94.52;100320.00;354559;27;1093;-71
2022/11/15 00:47:51;;;;;;;380.83;147.88;;;;;;;7.43;94.18;100323.50;353176;28;1379;-71
2022/11/15 00:48:01;;;;;;;384.17;148.57;;;;;;;7.43;94.48;100331.31;348962;28;1573;-71
2022/11/15 00:48:12;;;;;;;389.07;152.77;;;;;;;7.42;94.27;100321.78;347628;28;782;-72
2022/11/15 00:48:22;;;;;;;386.90;151.50;;;;;;;7.44;94.14;100320.00;348123;28;1496;-72
2022/11/15 00:48:32;;;;;;;385.30;150.57;;;;;;;7.44;93.92;100325.22;347528;28;1288;-72
2022/11/15 00:48:43;;;;;;;382.73;147.70;;;;;;;7.42;94.18;100326.13;347590;28;1204;-72
2022/11/15 00:48:53;;;;;;;382.17;148.00;;;;;;;7.43;94.13;100318.28;347832;28;978;-71
2022/11/15 00:49:03;;;;;;;383.67;150.37;;;;;;;7.42;94.30;100326.97;346157;28;2183;-71
2022/11/15 00:49:14;;;;;;;383.77;150.70;;;;;;;7.41;94.42;100322.66;345972;28;1946;-71
2022/11/15 00:49:24;;;;;;;382.37;150.90;;;;;;;7.42;94.47;100326.97;345829;28;1967;-72
2022/11/15 00:49:35;;;;;;;379.95;147.60;;;;;;;7.41;94.28;100330.47;344961;28;1208;-72
2022/11/15 00:49:45;;;;;;;380.47;149.60;;;;;;;7.43;94.22;100328.69;347254;28;2037;-72
2022/11/15 00:49:55;;;;;;;380.35;148.23;;;;;;;7.43;94.31;100323.50;347010;28;1610;-72
2022/11/15 00:50:06;;;;;;;381.23;147.97;;;;;;;7.43;94.19;100322.63;349299;28;1215;-71
2022/11/15 00:50:17;;;;;;;379.77;145.40;;;;;;;7.44;94.33;100325.22;348851;28;1674;-71
2022/11/15 00:50:27;;;;;;;378.83;146.40;;;;;;;7.46;94.47;100327.78;351836;28;878;-71
2022/11/15 00:50:37;;;;;;;384.63;149.25;;;;;;;7.48;94.17;100331.22;350375;28;1321;-71
2022/11/15 00:50:48;;;;;;;383.90;148.90;;;;;;;7.48;94.19;100326.88;349049;28;1010;-72
2022/11/15 00:50:59;;;;;;;382.70;148.35;;;;;;;7.48;94.38;100326.88;347675;28;4141;-71
2022/11/15 00:51:09;;;;;;;380.38;148.13;;;;;;;7.48;94.23;100326.88;348920;28;2820;-72
2022/11/15 00:51:20;;;;;;;384.97;154.60;;;;;;;7.48;93.94;100326.88;348673;28;1345;-72
2022/11/15 00:51:30;;;;;;;388.70;156.00;;;;;;;7.46;94.04;100326.03;348586;28;2589;-72
2022/11/15 00:51:40;;;;;;;387.40;155.03;;;;;;;7.46;94.15;100331.25;347533;28;3295;-72
2022/11/15 00:51:51;;;;;;;381.53;149.63;;;;;;;-144.77;100.00;59014.09;345063;28;1184;-72
2022/11/15 00:52:01;;;;;;;377.35;146.48;;;;;;;-144.77;100.00;59014.09;342208;28;1108;-72
2022/11/15 00:52:11;;;;;;;376.83;143.57;;;;;;;-144.77;100.00;59014.09;342426;28;967;-72
2022/11/15 00:52:22;;;;;;;377.73;144.52;;;;;;;-144.77;100.00;59014.09;342712;28;901;-72
2022/11/15 00:52:33;;;;;;;382.38;143.25;;;;;;;-144.77;100.00;59014.09;344959;28;864;-72
2022/11/15 00:52:43;;;;;;;380.10;142.10;;;;;;;-144.77;100.00;59014.09;346194;28;871;-72
2022/11/15 00:52:54;;;;;;;381.88;142.15;;;;;;;-144.77;100.00;59014.09;342783;28;1815;-72
2022/11/15 00:53:04;;;;;;;381.50;145.13;;;;;;;-144.77;100.00;59014.09;342284;28;1498;-72
2022/11/15 00:53:14;;;;;;;386.02;146.52;;;;;;;-144.77;100.00;59014.09;347510;28;2183;-72
2022/11/15 00:53:25;;;;;;;381.53;145.97;;;;;;;-144.77;94.09;94209.34;346705;28;1309;-72
2022/11/15 00:53:35;;;;;;;380.37;146.93;;;;;;;7.41;94.23;100324.41;344486;28;1307;-72
2022/11/15 00:53:45;;;;;;;378.65;148.00;;;;;;;7.40;94.08;100323.53;344084;28;1953;-72
2022/11/15 00:53:56;;;;;;;380.83;148.67;;;;;;;7.41;94.61;100325.25;346846;28;1118;-71
2022/11/15 00:54:06;;;;;;;380.77;149.35;;;;;;;7.40;95.36;100318.34;346497;28;1398;-71
2022/11/15 00:54:17;;;;;;;379.03;148.50;;;;;;;-144.77;100.00;59014.09;343486;28;1528;-71